sensor_id;sensor_type;location;lat;lon;timestamp;temperature;humidity
4052;DHT22;2040;50.924;11.604;2023-05-10T00:01:22;12.90;99.90
4052;DHT22;2040;50.924;11.604;2023-05-10T00:03:48;12.90;99.90
4052;DHT22;2040;50.924;11.604;2023-05-10T00:06:13;12.90;99.90
4052;DHT22;2040;50.924;11.604;2023-05-10T00:08:39;12.80;99.90
4052;DHT22;2040;50.924;11.604;2023-05-10T00:11:05;12.90;99.90
4052;DHT22;2040;50.924;11.604;2023-05-10T00:13:31;12.80;99.90
4052;DHT22;2040;50.924;11.604;2023-05-10T00:15:56;12.80;99.90
4052;DHT22;2040;50.924;11.604;2023-05-10T00:18:22;12.80;99.90
4052;DHT22;2040;50.924;11.604;2023-05-10T00:20:47;12.80;99.90
4052;DHT22;2040;50.924;11.604;2023-05-10T00:23:14;12.70;99.90
4052;DHT22;2040;50.924;11.604;2023-05-10T00:25:39;12.80;99.90
4052;DHT22;2040;50.924;11.604;2023-05-10T00:28:05;12.90;99.90
4052;DHT22;2040;50.924;11.604;2023-05-10T00:30:31;12.90;99.90
4052;DHT22;2040;50.924;11.604;2023-05-10T00:32:56;12.90;99.90
4052;DHT22;2040;50.924;11.604;2023-05-10T00:35:22;12.90;99.90
4052;DHT22;2040;50.924;11.604;2023-05-10T00:37:47;12.80;99.90
4052;DHT22;2040;50.924;11.604;2023-05-10T00:40:13;12.80;99.90
4052;DHT22;2040;50.924;11.604;2023-05-10T00:42:39;12.70;99.90
4052;DHT22;2040;50.924;11.604;2023-05-10T00:45:05;12.70;99.90
4052;DHT22;2040;50.924;11.604;2023-05-10T00:47:31;12.60;99.90
4052;DHT22;2040;50.924;11.604;2023-05-10T00:49:57;12.60;99.90
4052;DHT22;2040;50.924;11.604;2023-05-10T00:52:23;12.70;99.90
4052;DHT22;2040;50.924;11.604;2023-05-10T00:54:51;12.60;99.90
4052;DHT22;2040;50.924;11.604;2023-05-10T00:57:17;12.60;99.90
4052;DHT22;2040;50.924;11.604;2023-05-10T00:59:42;12.60;99.90
4052;DHT22;2040;50.924;11.604;2023-05-10T01:02:09;12.50;99.90
4052;DHT22;2040;50.924;11.604;2023-05-10T01:04:35;12.50;99.90
4052;DHT22;2040;50.924;11.604;2023-05-10T01:07:01;12.40;99.90
4052;DHT22;2040;50.924;11.604;2023-05-10T01:09:27;12.50;99.90
4052;DHT22;2040;50.924;11.604;2023-05-10T01:11:53;12.50;99.90
4052;DHT22;2040;50.924;11.604;2023-05-10T01:14:19;12.50;99.90
4052;DHT22;2040;50.924;11.604;2023-05-10T01:16:46;12.50;99.90
4052;DHT22;2040;50.924;11.604;2023-05-10T01:19:24;12.40;99.90
4052;DHT22;2040;50.924;11.604;2023-05-10T01:22:26;12.50;99.90
4052;DHT22;2040;50.924;11.604;2023-05-10T01:25:19;12.50;99.90
4052;DHT22;2040;50.924;11.604;2023-05-10T01:28:14;12.50;99.90
4052;DHT22;2040;50.924;11.604;2023-05-10T01:36:42;12.50;99.90
4052;DHT22;2040;50.924;11.604;2023-05-10T01:39:20;12.50;99.90
4052;DHT22;2040;50.924;11.604;2023-05-10T01:41:49;12.50;99.90
4052;DHT22;2040;50.924;11.604;2023-05-10T01:44:35;12.50;99.90
4052;DHT22;2040;50.924;11.604;2023-05-10T01:47:09;12.50;99.90
4052;DHT22;2040;50.924;11.604;2023-05-10T01:49:41;12.50;99.90
4052;DHT22;2040;50.924;11.604;2023-05-10T01:52:10;12.50;99.90
4052;DHT22;2040;50.924;11.604;2023-05-10T01:54:44;12.50;99.90
4052;DHT22;2040;50.924;11.604;2023-05-10T01:57:33;12.50;99.90
4052;DHT22;2040;50.924;11.604;2023-05-10T02:00:01;12.50;99.90
4052;DHT22;2040;50.924;11.604;2023-05-10T02:02:29;12.40;99.90
4052;DHT22;2040;50.924;11.604;2023-05-10T02:04:59;12.40;99.90
4052;DHT22;2040;50.924;11.604;2023-05-10T02:07:26;12.40;99.90
4052;DHT22;2040;50.924;11.604;2023-05-10T02:09:53;12.30;99.90
4052;DHT22;2040;50.924;11.604;2023-05-10T02:12:20;12.30;99.90
4052;DHT22;2040;50.924;11.604;2023-05-10T02:14:48;12.30;99.90
4052;DHT22;2040;50.924;11.604;2023-05-10T02:17:16;12.30;99.90
4052;DHT22;2040;50.924;11.604;2023-05-10T02:19:43;12.30;99.90
4052;DHT22;2040;50.924;11.604;2023-05-10T02:22:10;12.30;99.90
4052;DHT22;2040;50.924;11.604;2023-05-10T02:24:37;12.30;99.90
4052;DHT22;2040;50.924;11.604;2023-05-10T02:27:04;12.30;99.90
4052;DHT22;2040;50.924;11.604;2023-05-10T02:29:32;12.30;99.90
4052;DHT22;2040;50.924;11.604;2023-05-10T02:31:59;12.30;99.90
4052;DHT22;2040;50.924;11.604;2023-05-10T02:34:28;12.30;99.90
4052;DHT22;2040;50.924;11.604;2023-05-10T02:36:55;12.30;99.90
4052;DHT22;2040;50.924;11.604;2023-05-10T02:39:22;12.30;99.90
4052;DHT22;2040;50.924;11.604;2023-05-10T02:41:50;12.30;99.90
4052;DHT22;2040;50.924;11.604;2023-05-10T02:44:20;12.30;99.90
4052;DHT22;2040;50.924;11.604;2023-05-10T02:46:48;12.30;99.90
4052;DHT22;2040;50.924;11.604;2023-05-10T02:49:14;12.40;99.90
4052;DHT22;2040;50.924;11.604;2023-05-10T02:51:50;12.40;99.90
4052;DHT22;2040;50.924;11.604;2023-05-10T02:54:24;12.40;99.90
4052;DHT22;2040;50.924;11.604;2023-05-10T02:56:57;12.40;99.90
4052;DHT22;2040;50.924;11.604;2023-05-10T02:59:26;12.50;99.90
4052;DHT22;2040;50.924;11.604;2023-05-10T03:01:51;12.40;99.90
4052;DHT22;2040;50.924;11.604;2023-05-10T03:04:17;12.40;99.90
4052;DHT22;2040;50.924;11.604;2023-05-10T03:06:43;12.40;99.90
4052;DHT22;2040;50.924;11.604;2023-05-10T03:09:09;12.50;99.90
4052;DHT22;2040;50.924;11.604;2023-05-10T03:12:14;12.40;99.90
4052;DHT22;2040;50.924;11.604;2023-05-10T03:17:29;12.30;99.90
4052;DHT22;2040;50.924;11.604;2023-05-10T03:19:58;12.30;99.90
4052;DHT22;2040;50.924;11.604;2023-05-10T03:22:29;12.30;99.90
4052;DHT22;2040;50.924;11.604;2023-05-10T03:24:56;12.30;99.90
4052;DHT22;2040;50.924;11.604;2023-05-10T03:27:23;12.30;99.90
4052;DHT22;2040;50.924;11.604;2023-05-10T03:29:51;12.30;99.90
4052;DHT22;2040;50.924;11.604;2023-05-10T03:32:17;12.30;99.90
4052;DHT22;2040;50.924;11.604;2023-05-10T03:34:43;12.20;99.90
4052;DHT22;2040;50.924;11.604;2023-05-10T03:37:09;12.30;99.90
4052;DHT22;2040;50.924;11.604;2023-05-10T03:39:35;12.30;99.90
4052;DHT22;2040;50.924;11.604;2023-05-10T03:42:00;12.30;99.90
4052;DHT22;2040;50.924;11.604;2023-05-10T03:44:26;12.30;99.90
4052;DHT22;2040;50.924;11.604;2023-05-10T03:46:51;12.50;99.90
4052;DHT22;2040;50.924;11.604;2023-05-10T03:49:17;12.50;99.90
4052;DHT22;2040;50.924;11.604;2023-05-10T03:51:43;12.60;99.90
4052;DHT22;2040;50.924;11.604;2023-05-10T03:54:08;12.50;99.90
4052;DHT22;2040;50.924;11.604;2023-05-10T03:56:34;12.50;99.90
4052;DHT22;2040;50.924;11.604;2023-05-10T03:58:59;12.50;99.90
4052;DHT22;2040;50.924;11.604;2023-05-10T04:01:26;12.50;99.90
4052;DHT22;2040;50.924;11.604;2023-05-10T04:03:51;12.60;99.90
4052;DHT22;2040;50.924;11.604;2023-05-10T04:06:17;12.60;99.90
4052;DHT22;2040;50.924;11.604;2023-05-10T04:08:42;12.50;99.90
4052;DHT22;2040;50.924;11.604;2023-05-10T04:11:09;12.50;99.90
4052;DHT22;2040;50.924;11.604;2023-05-10T04:13:36;12.60;99.90
4052;DHT22;2040;50.924;11.604;2023-05-10T04:16:02;12.50;99.90
4052;DHT22;2040;50.924;11.604;2023-05-10T04:18:27;12.40;99.90
4052;DHT22;2040;50.924;11.604;2023-05-10T04:20:53;12.50;99.90
4052;DHT22;2040;50.924;11.604;2023-05-10T04:23:18;12.40;99.90
4052;DHT22;2040;50.924;11.604;2023-05-10T04:25:44;12.40;99.90
4052;DHT22;2040;50.924;11.604;2023-05-10T04:28:10;12.40;99.90
4052;DHT22;2040;50.924;11.604;2023-05-10T04:30:35;12.40;99.90
4052;DHT22;2040;50.924;11.604;2023-05-10T04:33:01;12.40;99.90
4052;DHT22;2040;50.924;11.604;2023-05-10T04:35:29;12.40;99.90
4052;DHT22;2040;50.924;11.604;2023-05-10T04:37:55;12.40;99.90
4052;DHT22;2040;50.924;11.604;2023-05-10T04:40:20;12.50;99.90
4052;DHT22;2040;50.924;11.604;2023-05-10T04:42:46;12.50;99.90
4052;DHT22;2040;50.924;11.604;2023-05-10T04:45:12;12.50;99.90
4052;DHT22;2040;50.924;11.604;2023-05-10T04:47:37;12.40;99.90
4052;DHT22;2040;50.924;11.604;2023-05-10T04:50:04;12.50;99.90
4052;DHT22;2040;50.924;11.604;2023-05-10T04:52:29;12.50;99.90
4052;DHT22;2040;50.924;11.604;2023-05-10T04:54:55;12.50;99.90
4052;DHT22;2040;50.924;11.604;2023-05-10T04:57:20;12.50;99.90
4052;DHT22;2040;50.924;11.604;2023-05-10T04:59:46;12.50;99.90
4052;DHT22;2040;50.924;11.604;2023-05-10T05:02:12;12.50;99.90
4052;DHT22;2040;50.924;11.604;2023-05-10T05:04:37;12.50;99.90
4052;DHT22;2040;50.924;11.604;2023-05-10T05:07:03;12.60;99.90
4052;DHT22;2040;50.924;11.604;2023-05-10T05:09:28;12.60;99.90
4052;DHT22;2040;50.924;11.604;2023-05-10T05:11:54;12.50;99.90
4052;DHT22;2040;50.924;11.604;2023-05-10T05:14:20;12.60;99.90
4052;DHT22;2040;50.924;11.604;2023-05-10T05:16:50;12.60;99.90
4052;DHT22;2040;50.924;11.604;2023-05-10T05:19:16;12.60;99.90
4052;DHT22;2040;50.924;11.604;2023-05-10T05:21:42;12.60;99.90
4052;DHT22;2040;50.924;11.604;2023-05-10T05:24:07;12.70;99.90
4052;DHT22;2040;50.924;11.604;2023-05-10T05:26:33;12.60;99.90
4052;DHT22;2040;50.924;11.604;2023-05-10T05:28:58;12.70;99.90
4052;DHT22;2040;50.924;11.604;2023-05-10T05:31:24;12.70;99.90
4052;DHT22;2040;50.924;11.604;2023-05-10T05:33:49;12.70;99.90
4052;DHT22;2040;50.924;11.604;2023-05-10T05:36:15;12.70;99.90
4052;DHT22;2040;50.924;11.604;2023-05-10T05:38:40;12.80;99.90
4052;DHT22;2040;50.924;11.604;2023-05-10T05:41:06;12.80;99.90
4052;DHT22;2040;50.924;11.604;2023-05-10T05:43:32;12.80;99.90
4052;DHT22;2040;50.924;11.604;2023-05-10T05:45:57;12.90;99.90
4052;DHT22;2040;50.924;11.604;2023-05-10T05:48:23;13.00;99.90
4052;DHT22;2040;50.924;11.604;2023-05-10T05:50:49;13.00;99.90
4052;DHT22;2040;50.924;11.604;2023-05-10T05:53:14;13.10;99.90
4052;DHT22;2040;50.924;11.604;2023-05-10T05:55:50;13.10;99.90
4052;DHT22;2040;50.924;11.604;2023-05-10T05:58:15;13.10;99.90
4052;DHT22;2040;50.924;11.604;2023-05-10T06:00:41;13.00;99.90
4052;DHT22;2040;50.924;11.604;2023-05-10T06:03:07;13.10;99.90
4052;DHT22;2040;50.924;11.604;2023-05-10T06:05:32;13.10;99.90
4052;DHT22;2040;50.924;11.604;2023-05-10T06:07:59;13.20;99.90
4052;DHT22;2040;50.924;11.604;2023-05-10T06:10:25;13.20;99.90
4052;DHT22;2040;50.924;11.604;2023-05-10T06:12:52;13.20;99.90
4052;DHT22;2040;50.924;11.604;2023-05-10T06:15:18;13.30;99.90
4052;DHT22;2040;50.924;11.604;2023-05-10T06:17:44;13.30;99.90
4052;DHT22;2040;50.924;11.604;2023-05-10T06:20:10;13.30;99.90
4052;DHT22;2040;50.924;11.604;2023-05-10T06:22:36;13.30;99.90
4052;DHT22;2040;50.924;11.604;2023-05-10T06:25:01;13.30;99.90
4052;DHT22;2040;50.924;11.604;2023-05-10T06:27:27;13.40;99.90
4052;DHT22;2040;50.924;11.604;2023-05-10T06:29:54;13.40;99.90
4052;DHT22;2040;50.924;11.604;2023-05-10T06:32:19;13.60;99.90
4052;DHT22;2040;50.924;11.604;2023-05-10T06:34:45;13.60;99.90
4052;DHT22;2040;50.924;11.604;2023-05-10T06:37:11;13.60;99.90
4052;DHT22;2040;50.924;11.604;2023-05-10T06:39:37;13.50;99.90
4052;DHT22;2040;50.924;11.604;2023-05-10T06:42:03;13.40;99.90
4052;DHT22;2040;50.924;11.604;2023-05-10T06:44:29;13.40;99.90
4052;DHT22;2040;50.924;11.604;2023-05-10T06:46:55;13.30;99.90
4052;DHT22;2040;50.924;11.604;2023-05-10T06:49:21;13.30;99.90
4052;DHT22;2040;50.924;11.604;2023-05-10T06:51:47;13.30;99.90
4052;DHT22;2040;50.924;11.604;2023-05-10T06:54:12;13.30;99.90
4052;DHT22;2040;50.924;11.604;2023-05-10T06:56:38;13.30;99.90
4052;DHT22;2040;50.924;11.604;2023-05-10T06:59:03;13.10;99.90
4052;DHT22;2040;50.924;11.604;2023-05-10T07:01:29;13.10;99.90
4052;DHT22;2040;50.924;11.604;2023-05-10T07:03:54;13.10;99.90
4052;DHT22;2040;50.924;11.604;2023-05-10T07:06:20;13.00;99.90
4052;DHT22;2040;50.924;11.604;2023-05-10T07:08:46;13.10;99.90
4052;DHT22;2040;50.924;11.604;2023-05-10T07:11:11;13.10;99.90
4052;DHT22;2040;50.924;11.604;2023-05-10T07:13:37;13.10;99.90
4052;DHT22;2040;50.924;11.604;2023-05-10T07:16:04;13.10;99.90
4052;DHT22;2040;50.924;11.604;2023-05-10T07:18:31;13.10;99.90
4052;DHT22;2040;50.924;11.604;2023-05-10T07:20:57;13.10;99.90
4052;DHT22;2040;50.924;11.604;2023-05-10T07:23:23;13.10;99.90
4052;DHT22;2040;50.924;11.604;2023-05-10T07:25:49;13.10;99.90
4052;DHT22;2040;50.924;11.604;2023-05-10T07:28:16;13.10;99.90
4052;DHT22;2040;50.924;11.604;2023-05-10T07:30:42;13.20;99.90
4052;DHT22;2040;50.924;11.604;2023-05-10T07:33:09;13.20;99.90
4052;DHT22;2040;50.924;11.604;2023-05-10T07:35:35;13.30;99.90
4052;DHT22;2040;50.924;11.604;2023-05-10T07:38:01;13.40;99.90
4052;DHT22;2040;50.924;11.604;2023-05-10T07:40:27;13.40;99.90
4052;DHT22;2040;50.924;11.604;2023-05-10T07:42:53;13.40;99.90
4052;DHT22;2040;50.924;11.604;2023-05-10T07:45:18;13.40;99.90
4052;DHT22;2040;50.924;11.604;2023-05-10T07:47:44;13.40;99.90
4052;DHT22;2040;50.924;11.604;2023-05-10T07:50:09;13.40;99.90
4052;DHT22;2040;50.924;11.604;2023-05-10T07:52:35;13.30;99.90
4052;DHT22;2040;50.924;11.604;2023-05-10T07:55:01;13.40;99.90
4052;DHT22;2040;50.924;11.604;2023-05-10T07:57:26;13.40;99.90
4052;DHT22;2040;50.924;11.604;2023-05-10T07:59:52;13.30;99.90
4052;DHT22;2040;50.924;11.604;2023-05-10T08:02:17;13.30;99.90
4052;DHT22;2040;50.924;11.604;2023-05-10T08:04:43;13.40;99.90
4052;DHT22;2040;50.924;11.604;2023-05-10T08:07:08;13.40;99.90
4052;DHT22;2040;50.924;11.604;2023-05-10T08:09:34;13.40;99.90
4052;DHT22;2040;50.924;11.604;2023-05-10T08:11:59;13.50;99.90
4052;DHT22;2040;50.924;11.604;2023-05-10T08:14:27;13.60;99.90
4052;DHT22;2040;50.924;11.604;2023-05-10T08:16:53;13.70;99.90
4052;DHT22;2040;50.924;11.604;2023-05-10T08:19:18;13.70;99.90
4052;DHT22;2040;50.924;11.604;2023-05-10T08:21:45;13.70;99.90
4052;DHT22;2040;50.924;11.604;2023-05-10T08:24:11;13.80;99.90
4052;DHT22;2040;50.924;11.604;2023-05-10T08:26:36;14.00;99.90
4052;DHT22;2040;50.924;11.604;2023-05-10T08:29:02;14.10;99.90
4052;DHT22;2040;50.924;11.604;2023-05-10T08:31:28;14.00;99.90
4052;DHT22;2040;50.924;11.604;2023-05-10T08:33:53;14.00;99.90
4052;DHT22;2040;50.924;11.604;2023-05-10T08:36:19;14.00;99.90
4052;DHT22;2040;50.924;11.604;2023-05-10T08:38:53;14.00;99.90
4052;DHT22;2040;50.924;11.604;2023-05-10T08:41:23;14.00;99.90
4052;DHT22;2040;50.924;11.604;2023-05-10T08:43:53;14.00;99.90
4052;DHT22;2040;50.924;11.604;2023-05-10T08:46:21;13.90;99.90
4052;DHT22;2040;50.924;11.604;2023-05-10T08:48:48;14.10;99.90
4052;DHT22;2040;50.924;11.604;2023-05-10T08:51:17;14.30;99.90
4052;DHT22;2040;50.924;11.604;2023-05-10T08:53:44;14.40;99.90
4052;DHT22;2040;50.924;11.604;2023-05-10T08:56:10;14.50;99.90
4052;DHT22;2040;50.924;11.604;2023-05-10T08:58:36;14.50;99.90
4052;DHT22;2040;50.924;11.604;2023-05-10T09:01:03;14.60;99.90
4052;DHT22;2040;50.924;11.604;2023-05-10T09:03:29;14.70;99.90
4052;DHT22;2040;50.924;11.604;2023-05-10T09:05:55;14.80;99.90
4052;DHT22;2040;50.924;11.604;2023-05-10T09:08:22;15.00;99.90
4052;DHT22;2040;50.924;11.604;2023-05-10T09:10:50;15.00;99.90
4052;DHT22;2040;50.924;11.604;2023-05-10T09:13:17;15.10;99.90
4052;DHT22;2040;50.924;11.604;2023-05-10T09:15:44;15.10;99.90
4052;DHT22;2040;50.924;11.604;2023-05-10T09:18:10;15.10;99.90
4052;DHT22;2040;50.924;11.604;2023-05-10T09:20:35;15.20;99.90
4052;DHT22;2040;50.924;11.604;2023-05-10T09:23:01;15.20;99.90
4052;DHT22;2040;50.924;11.604;2023-05-10T09:25:27;15.40;99.90
4052;DHT22;2040;50.924;11.604;2023-05-10T09:27:52;15.60;99.90
4052;DHT22;2040;50.924;11.604;2023-05-10T09:30:26;15.60;99.90
4052;DHT22;2040;50.924;11.604;2023-05-10T09:32:54;15.60;99.90
4052;DHT22;2040;50.924;11.604;2023-05-10T09:35:26;15.70;99.90
4052;DHT22;2040;50.924;11.604;2023-05-10T09:37:55;15.60;99.90
4052;DHT22;2040;50.924;11.604;2023-05-10T09:40:23;15.50;99.90
4052;DHT22;2040;50.924;11.604;2023-05-10T09:43:01;15.50;99.90
4052;DHT22;2040;50.924;11.604;2023-05-10T09:45:29;15.50;99.90
4052;DHT22;2040;50.924;11.604;2023-05-10T09:47:56;15.60;99.90
4052;DHT22;2040;50.924;11.604;2023-05-10T09:50:22;15.70;99.90
4052;DHT22;2040;50.924;11.604;2023-05-10T09:55:24;15.90;99.90
4052;DHT22;2040;50.924;11.604;2023-05-10T09:57:59;16.00;99.90
4052;DHT22;2040;50.924;11.604;2023-05-10T10:00:25;16.20;99.90
4052;DHT22;2040;50.924;11.604;2023-05-10T10:02:56;16.40;99.90
4052;DHT22;2040;50.924;11.604;2023-05-10T10:05:31;16.60;99.90
4052;DHT22;2040;50.924;11.604;2023-05-10T10:07:58;16.70;99.90
4052;DHT22;2040;50.924;11.604;2023-05-10T10:10:27;16.80;99.90
4052;DHT22;2040;50.924;11.604;2023-05-10T10:12:54;16.80;99.90
4052;DHT22;2040;50.924;11.604;2023-05-10T10:15:23;16.80;99.90
4052;DHT22;2040;50.924;11.604;2023-05-10T10:17:50;16.80;99.90
4052;DHT22;2040;50.924;11.604;2023-05-10T10:20:17;16.90;99.90
4052;DHT22;2040;50.924;11.604;2023-05-10T10:22:43;16.80;99.90
4052;DHT22;2040;50.924;11.604;2023-05-10T10:25:15;16.70;99.90
4052;DHT22;2040;50.924;11.604;2023-05-10T10:33:18;16.40;99.90
4052;DHT22;2040;50.924;11.604;2023-05-10T10:35:52;16.30;99.90
4052;DHT22;2040;50.924;11.604;2023-05-10T10:38:18;16.30;99.90
4052;DHT22;2040;50.924;11.604;2023-05-10T10:40:44;16.30;99.90
4052;DHT22;2040;50.924;11.604;2023-05-10T10:43:24;16.30;99.90
4052;DHT22;2040;50.924;11.604;2023-05-10T10:46:13;16.40;99.90
4052;DHT22;2040;50.924;11.604;2023-05-10T10:51:23;16.40;99.90
4052;DHT22;2040;50.924;11.604;2023-05-10T10:53:49;16.20;99.90
4052;DHT22;2040;50.924;11.604;2023-05-10T10:56:15;16.10;99.90
4052;DHT22;2040;50.924;11.604;2023-05-10T10:58:41;16.00;99.90
4052;DHT22;2040;50.924;11.604;2023-05-10T11:01:19;15.80;99.90
4052;DHT22;2040;50.924;11.604;2023-05-10T11:04:17;15.50;99.90
4052;DHT22;2040;50.924;11.604;2023-05-10T11:06:43;15.50;99.90
4052;DHT22;2040;50.924;11.604;2023-05-10T11:09:12;15.50;99.90
4052;DHT22;2040;50.924;11.604;2023-05-10T11:11:52;15.50;99.90
4052;DHT22;2040;50.924;11.604;2023-05-10T11:14:21;15.60;99.90
4052;DHT22;2040;50.924;11.604;2023-05-10T11:16:47;15.60;99.90
4052;DHT22;2040;50.924;11.604;2023-05-10T11:19:14;15.80;99.90
4052;DHT22;2040;50.924;11.604;2023-05-10T11:21:49;15.90;99.90
4052;DHT22;2040;50.924;11.604;2023-05-10T11:24:21;15.90;99.90
4052;DHT22;2040;50.924;11.604;2023-05-10T11:26:50;15.90;99.90
4052;DHT22;2040;50.924;11.604;2023-05-10T11:29:16;15.80;99.90
4052;DHT22;2040;50.924;11.604;2023-05-10T11:31:46;15.70;99.90
4052;DHT22;2040;50.924;11.604;2023-05-10T11:34:26;15.40;99.90
4052;DHT22;2040;50.924;11.604;2023-05-10T11:36:53;15.10;99.90
4052;DHT22;2040;50.924;11.604;2023-05-10T11:39:19;14.90;99.90
4052;DHT22;2040;50.924;11.604;2023-05-10T11:41:48;14.70;99.90
4052;DHT22;2040;50.924;11.604;2023-05-10T11:44:14;14.70;99.90
4052;DHT22;2040;50.924;11.604;2023-05-10T11:46:39;14.70;99.90
4052;DHT22;2040;50.924;11.604;2023-05-10T11:49:07;14.60;99.90
4052;DHT22;2040;50.924;11.604;2023-05-10T11:51:36;14.70;99.90
4052;DHT22;2040;50.924;11.604;2023-05-10T11:54:05;14.70;99.90
4052;DHT22;2040;50.924;11.604;2023-05-10T11:56:32;14.70;99.90
4052;DHT22;2040;50.924;11.604;2023-05-10T11:58:59;14.90;99.90
4052;DHT22;2040;50.924;11.604;2023-05-10T12:01:27;14.80;99.90
4052;DHT22;2040;50.924;11.604;2023-05-10T12:03:54;14.70;99.90
4052;DHT22;2040;50.924;11.604;2023-05-10T12:06:20;14.70;99.90
4052;DHT22;2040;50.924;11.604;2023-05-10T12:08:47;14.90;99.90
4052;DHT22;2040;50.924;11.604;2023-05-10T12:11:14;14.80;99.90
4052;DHT22;2040;50.924;11.604;2023-05-10T12:13:42;14.90;99.90
4052;DHT22;2040;50.924;11.604;2023-05-10T12:16:16;15.00;99.90
4052;DHT22;2040;50.924;11.604;2023-05-10T12:18:42;15.00;99.90
4052;DHT22;2040;50.924;11.604;2023-05-10T12:21:10;15.00;99.90
4052;DHT22;2040;50.924;11.604;2023-05-10T12:23:37;14.90;99.90
4052;DHT22;2040;50.924;11.604;2023-05-10T12:26:03;15.10;99.90
4052;DHT22;2040;50.924;11.604;2023-05-10T12:28:30;15.10;99.90
4052;DHT22;2040;50.924;11.604;2023-05-10T12:30:57;15.10;99.90
4052;DHT22;2040;50.924;11.604;2023-05-10T12:33:23;15.20;99.90
4052;DHT22;2040;50.924;11.604;2023-05-10T12:35:50;15.40;99.90
4052;DHT22;2040;50.924;11.604;2023-05-10T12:38:35;15.50;99.90
4052;DHT22;2040;50.924;11.604;2023-05-10T12:41:05;15.60;99.90
4052;DHT22;2040;50.924;11.604;2023-05-10T12:43:32;15.60;99.90
4052;DHT22;2040;50.924;11.604;2023-05-10T12:45:57;15.70;99.90
4052;DHT22;2040;50.924;11.604;2023-05-10T12:48:24;15.90;99.90
4052;DHT22;2040;50.924;11.604;2023-05-10T12:50:50;15.90;99.90
4052;DHT22;2040;50.924;11.604;2023-05-10T12:53:16;16.10;99.90
4052;DHT22;2040;50.924;11.604;2023-05-10T12:55:42;16.30;99.90
4052;DHT22;2040;50.924;11.604;2023-05-10T12:58:08;16.60;99.90
4052;DHT22;2040;50.924;11.604;2023-05-10T13:00:33;16.90;99.90
4052;DHT22;2040;50.924;11.604;2023-05-10T13:02:59;16.90;99.90
4052;DHT22;2040;50.924;11.604;2023-05-10T13:05:25;17.00;99.90
4052;DHT22;2040;50.924;11.604;2023-05-10T13:07:50;16.80;99.90
4052;DHT22;2040;50.924;11.604;2023-05-10T13:10:16;16.70;99.90
4052;DHT22;2040;50.924;11.604;2023-05-10T13:12:42;16.60;99.90
4052;DHT22;2040;50.924;11.604;2023-05-10T13:15:07;16.60;99.90
4052;DHT22;2040;50.924;11.604;2023-05-10T13:17:33;16.30;99.90
4052;DHT22;2040;50.924;11.604;2023-05-10T13:19:59;16.00;99.90
4052;DHT22;2040;50.924;11.604;2023-05-10T13:22:25;16.00;99.90
4052;DHT22;2040;50.924;11.604;2023-05-10T13:24:50;15.90;99.90
4052;DHT22;2040;50.924;11.604;2023-05-10T13:27:16;16.00;99.90
4052;DHT22;2040;50.924;11.604;2023-05-10T13:29:44;15.90;99.90
4052;DHT22;2040;50.924;11.604;2023-05-10T13:32:09;15.70;99.90
4052;DHT22;2040;50.924;11.604;2023-05-10T13:34:35;15.60;99.90
4052;DHT22;2040;50.924;11.604;2023-05-10T13:37:01;15.60;99.90
4052;DHT22;2040;50.924;11.604;2023-05-10T13:39:26;15.60;99.90
4052;DHT22;2040;50.924;11.604;2023-05-10T13:41:52;15.60;99.90
4052;DHT22;2040;50.924;11.604;2023-05-10T13:44:19;15.70;99.90
4052;DHT22;2040;50.924;11.604;2023-05-10T13:46:45;15.60;99.90
4052;DHT22;2040;50.924;11.604;2023-05-10T13:49:11;15.70;99.90
4052;DHT22;2040;50.924;11.604;2023-05-10T13:51:37;15.70;99.90
4052;DHT22;2040;50.924;11.604;2023-05-10T13:54:02;15.70;99.90
4052;DHT22;2040;50.924;11.604;2023-05-10T13:56:28;15.60;99.90
4052;DHT22;2040;50.924;11.604;2023-05-10T13:58:54;15.60;99.90
4052;DHT22;2040;50.924;11.604;2023-05-10T14:01:19;15.40;99.90
4052;DHT22;2040;50.924;11.604;2023-05-10T14:03:45;15.30;99.90
4052;DHT22;2040;50.924;11.604;2023-05-10T14:06:10;15.30;99.90
4052;DHT22;2040;50.924;11.604;2023-05-10T14:08:36;15.40;99.90
4052;DHT22;2040;50.924;11.604;2023-05-10T14:11:02;15.50;99.90
4052;DHT22;2040;50.924;11.604;2023-05-10T14:13:27;15.70;99.90
4052;DHT22;2040;50.924;11.604;2023-05-10T14:15:54;15.80;99.90
4052;DHT22;2040;50.924;11.604;2023-05-10T14:18:20;15.90;99.90
4052;DHT22;2040;50.924;11.604;2023-05-10T14:20:46;16.00;99.90
4052;DHT22;2040;50.924;11.604;2023-05-10T14:23:11;16.10;99.90
4052;DHT22;2040;50.924;11.604;2023-05-10T14:25:40;16.20;99.90
4052;DHT22;2040;50.924;11.604;2023-05-10T14:28:05;16.30;99.90
4052;DHT22;2040;50.924;11.604;2023-05-10T14:30:32;16.40;99.90
4052;DHT22;2040;50.924;11.604;2023-05-10T14:33:00;16.50;99.90
4052;DHT22;2040;50.924;11.604;2023-05-10T14:35:27;16.60;99.90
4052;DHT22;2040;50.924;11.604;2023-05-10T14:37:52;16.80;99.90
4052;DHT22;2040;50.924;11.604;2023-05-10T14:40:18;17.00;99.90
4052;DHT22;2040;50.924;11.604;2023-05-10T14:42:44;17.20;99.90
4052;DHT22;2040;50.924;11.604;2023-05-10T14:45:10;17.20;99.90
4052;DHT22;2040;50.924;11.604;2023-05-10T14:47:36;17.50;99.90
4052;DHT22;2040;50.924;11.604;2023-05-10T14:50:02;17.70;99.90
4052;DHT22;2040;50.924;11.604;2023-05-10T14:52:27;17.80;99.90
4052;DHT22;2040;50.924;11.604;2023-05-10T14:54:53;18.10;99.90
4052;DHT22;2040;50.924;11.604;2023-05-10T14:57:18;18.40;99.90
4052;DHT22;2040;50.924;11.604;2023-05-10T14:59:44;18.60;99.90
4052;DHT22;2040;50.924;11.604;2023-05-10T15:02:10;18.70;99.90
4052;DHT22;2040;50.924;11.604;2023-05-10T15:04:36;18.90;99.90
4052;DHT22;2040;50.924;11.604;2023-05-10T15:07:01;19.00;99.90
4052;DHT22;2040;50.924;11.604;2023-05-10T15:09:27;18.90;99.90
4052;DHT22;2040;50.924;11.604;2023-05-10T15:11:53;18.90;99.90
4052;DHT22;2040;50.924;11.604;2023-05-10T15:14:19;18.70;99.90
4052;DHT22;2040;50.924;11.604;2023-05-10T15:16:44;18.50;99.90
4052;DHT22;2040;50.924;11.604;2023-05-10T15:19:10;18.30;99.90
4052;DHT22;2040;50.924;11.604;2023-05-10T15:21:35;18.00;99.90
4052;DHT22;2040;50.924;11.604;2023-05-10T15:24:05;18.10;99.90
4052;DHT22;2040;50.924;11.604;2023-05-10T15:26:31;18.10;99.90
4052;DHT22;2040;50.924;11.604;2023-05-10T15:28:56;18.00;99.90
4052;DHT22;2040;50.924;11.604;2023-05-10T15:31:22;17.90;99.90
4052;DHT22;2040;50.924;11.604;2023-05-10T15:33:48;17.70;99.90
4052;DHT22;2040;50.924;11.604;2023-05-10T15:36:13;17.80;99.90
4052;DHT22;2040;50.924;11.604;2023-05-10T15:38:39;17.80;99.90
4052;DHT22;2040;50.924;11.604;2023-05-10T15:41:04;17.80;99.90
4052;DHT22;2040;50.924;11.604;2023-05-10T15:43:30;17.90;99.90
4052;DHT22;2040;50.924;11.604;2023-05-10T15:45:56;17.80;99.90
4052;DHT22;2040;50.924;11.604;2023-05-10T15:48:21;17.70;99.90
4052;DHT22;2040;50.924;11.604;2023-05-10T15:50:47;17.70;99.90
4052;DHT22;2040;50.924;11.604;2023-05-10T15:53:12;17.80;99.90
4052;DHT22;2040;50.924;11.604;2023-05-10T15:55:38;17.50;99.90
4052;DHT22;2040;50.924;11.604;2023-05-10T15:58:04;17.60;99.90
4052;DHT22;2040;50.924;11.604;2023-05-10T16:00:29;17.70;99.90
4052;DHT22;2040;50.924;11.604;2023-05-10T16:02:55;17.50;99.90
4052;DHT22;2040;50.924;11.604;2023-05-10T16:05:21;17.30;99.90